sensor_id;sensor_type;location;lat;lon;timestamp;P1;durP1;ratioP1;P2;durP2;ratioP2
70420;SDS011;57848;51.938;15.520;2023-10-19T00:00:48;33.33;;;15.93;;
70420;SDS011;57848;51.938;15.520;2023-10-19T00:03:18;34.20;;;15.60;;
70420;SDS011;57848;51.938;15.520;2023-10-19T00:05:44;36.10;;;15.82;;
70420;SDS011;57848;51.938;15.520;2023-10-19T00:08:11;31.73;;;16.17;;
70420;SDS011;57848;51.938;15.520;2023-10-19T00:10:41;36.08;;;16.35;;
70420;SDS011;57848;51.938;15.520;2023-10-19T00:13:09;32.45;;;14.88;;
70420;SDS011;57848;51.938;15.520;2023-10-19T00:15:36;34.60;;;16.50;;
70420;SDS011;57848;51.938;15.520;2023-10-19T00:18:08;30.67;;;14.70;;
70420;SDS011;57848;51.938;15.520;2023-10-19T00:20:46;34.17;;;14.45;;
70420;SDS011;57848;51.938;15.520;2023-10-19T00:23:32;31.77;;;15.23;;
70420;SDS011;57848;51.938;15.520;2023-10-19T00:25:58;32.60;;;15.97;;
70420;SDS011;57848;51.938;15.520;2023-10-19T00:28:24;37.40;;;16.08;;
70420;SDS011;57848;51.938;15.520;2023-10-19T00:30:52;34.53;;;14.73;;
70420;SDS011;57848;51.938;15.520;2023-10-19T00:33:18;31.70;;;15.43;;
70420;SDS011;57848;51.938;15.520;2023-10-19T00:35:47;34.03;;;16.42;;
70420;SDS011;57848;51.938;15.520;2023-10-19T00:38:24;33.22;;;14.98;;
70420;SDS011;57848;51.938;15.520;2023-10-19T00:40:55;41.72;;;16.10;;
70420;SDS011;57848;51.938;15.520;2023-10-19T00:43:29;37.57;;;16.10;;
70420;SDS011;57848;51.938;15.520;2023-10-19T00:46:02;30.58;;;14.73;;
70420;SDS011;57848;51.938;15.520;2023-10-19T00:48:54;31.75;;;15.75;;
70420;SDS011;57848;51.938;15.520;2023-10-19T00:51:27;31.58;;;14.70;;
70420;SDS011;57848;51.938;15.520;2023-10-19T00:54:11;29.98;;;15.18;;
70420;SDS011;57848;51.938;15.520;2023-10-19T00:56:47;35.00;;;15.80;;
70420;SDS011;57848;51.938;15.520;2023-10-19T00:59:21;29.45;;;13.88;;
70420;SDS011;57848;51.938;15.520;2023-10-19T01:01:49;31.48;;;15.85;;
70420;SDS011;57848;51.938;15.520;2023-10-19T01:04:18;33.83;;;15.05;;
70420;SDS011;57848;51.938;15.520;2023-10-19T01:06:48;33.03;;;15.40;;
70420;SDS011;57848;51.938;15.520;2023-10-19T01:09:30;31.53;;;14.80;;
70420;SDS011;57848;51.938;15.520;2023-10-19T01:12:04;31.50;;;13.98;;
70420;SDS011;57848;51.938;15.520;2023-10-19T01:17:42;34.15;;;15.23;;
70420;SDS011;57848;51.938;15.520;2023-10-19T01:20:09;36.88;;;16.27;;
70420;SDS011;57848;51.938;15.520;2023-10-19T01:22:52;30.10;;;14.97;;
70420;SDS011;57848;51.938;15.520;2023-10-19T01:28:24;36.42;;;15.63;;
70420;SDS011;57848;51.938;15.520;2023-10-19T01:30:53;29.55;;;14.73;;
70420;SDS011;57848;51.938;15.520;2023-10-19T01:33:19;30.87;;;15.03;;
70420;SDS011;57848;51.938;15.520;2023-10-19T01:35:49;30.40;;;15.00;;
70420;SDS011;57848;51.938;15.520;2023-10-19T01:38:33;30.58;;;14.85;;
70420;SDS011;57848;51.938;15.520;2023-10-19T01:41:00;31.40;;;15.20;;
70420;SDS011;57848;51.938;15.520;2023-10-19T01:43:29;30.67;;;14.55;;
70420;SDS011;57848;51.938;15.520;2023-10-19T01:45:58;30.43;;;14.80;;
70420;SDS011;57848;51.938;15.520;2023-10-19T01:48:29;30.02;;;14.60;;
70420;SDS011;57848;51.938;15.520;2023-10-19T01:51:04;32.45;;;15.90;;
70420;SDS011;57848;51.938;15.520;2023-10-19T01:53:33;33.08;;;15.30;;
70420;SDS011;57848;51.938;15.520;2023-10-19T01:56:02;31.08;;;15.20;;
70420;SDS011;57848;51.938;15.520;2023-10-19T01:58:33;39.03;;;13.77;;
70420;SDS011;57848;51.938;15.520;2023-10-19T02:01:02;30.77;;;14.48;;
70420;SDS011;57848;51.938;15.520;2023-10-19T02:03:35;28.15;;;13.90;;
70420;SDS011;57848;51.938;15.520;2023-10-19T02:06:01;30.60;;;13.85;;
70420;SDS011;57848;51.938;15.520;2023-10-19T02:08:47;28.48;;;14.18;;
70420;SDS011;57848;51.938;15.520;2023-10-19T02:11:23;36.23;;;13.83;;
70420;SDS011;57848;51.938;15.520;2023-10-19T02:13:50;29.10;;;13.38;;
70420;SDS011;57848;51.938;15.520;2023-10-19T02:16:18;31.92;;;14.48;;
70420;SDS011;57848;51.938;15.520;2023-10-19T02:18:50;30.05;;;14.32;;
70420;SDS011;57848;51.938;15.520;2023-10-19T02:21:17;30.55;;;14.88;;
70420;SDS011;57848;51.938;15.520;2023-10-19T02:23:47;32.50;;;15.00;;
70420;SDS011;57848;51.938;15.520;2023-10-19T02:26:15;31.77;;;14.10;;
70420;SDS011;57848;51.938;15.520;2023-10-19T02:28:53;34.15;;;15.10;;
70420;SDS011;57848;51.938;15.520;2023-10-19T02:31:20;32.13;;;14.60;;
70420;SDS011;57848;51.938;15.520;2023-10-19T02:33:48;29.05;;;14.00;;
70420;SDS011;57848;51.938;15.520;2023-10-19T02:36:20;31.13;;;14.47;;
70420;SDS011;57848;51.938;15.520;2023-10-19T02:38:46;33.25;;;14.23;;
70420;SDS011;57848;51.938;15.520;2023-10-19T02:41:16;30.33;;;13.63;;
70420;SDS011;57848;51.938;15.520;2023-10-19T02:43:42;32.80;;;14.43;;
70420;SDS011;57848;51.938;15.520;2023-10-19T02:46:13;27.52;;;14.15;;
70420;SDS011;57848;51.938;15.520;2023-10-19T02:48:39;31.37;;;14.17;;
70420;SDS011;57848;51.938;15.520;2023-10-19T02:51:12;29.87;;;14.23;;
70420;SDS011;57848;51.938;15.520;2023-10-19T02:53:41;33.22;;;13.88;;
70420;SDS011;57848;51.938;15.520;2023-10-19T02:56:14;30.00;;;14.20;;
70420;SDS011;57848;51.938;15.520;2023-10-19T02:58:43;28.77;;;14.07;;
70420;SDS011;57848;51.938;15.520;2023-10-19T03:01:17;29.30;;;13.27;;
70420;SDS011;57848;51.938;15.520;2023-10-19T03:03:50;31.63;;;13.83;;
70420;SDS011;57848;51.938;15.520;2023-10-19T03:06:19;27.83;;;12.77;;
70420;SDS011;57848;51.938;15.520;2023-10-19T03:08:48;26.95;;;12.48;;
70420;SDS011;57848;51.938;15.520;2023-10-19T03:11:23;29.27;;;12.75;;
70420;SDS011;57848;51.938;15.520;2023-10-19T03:13:50;30.00;;;13.73;;
70420;SDS011;57848;51.938;15.520;2023-10-19T03:16:19;26.20;;;11.93;;
70420;SDS011;57848;51.938;15.520;2023-10-19T03:18:46;29.55;;;12.60;;
70420;SDS011;57848;51.938;15.520;2023-10-19T03:21:12;27.90;;;12.40;;
70420;SDS011;57848;51.938;15.520;2023-10-19T03:23:37;25.17;;;11.87;;
70420;SDS011;57848;51.938;15.520;2023-10-19T03:26:03;24.43;;;11.00;;
70420;SDS011;57848;51.938;15.520;2023-10-19T03:28:48;25.23;;;11.82;;
70420;SDS011;57848;51.938;15.520;2023-10-19T03:31:14;25.90;;;11.90;;
70420;SDS011;57848;51.938;15.520;2023-10-19T03:33:46;28.15;;;12.70;;
70420;SDS011;57848;51.938;15.520;2023-10-19T03:36:19;23.70;;;10.40;;
70420;SDS011;57848;51.938;15.520;2023-10-19T03:38:48;26.02;;;11.10;;
70420;SDS011;57848;51.938;15.520;2023-10-19T03:41:21;26.40;;;11.65;;
70420;SDS011;57848;51.938;15.520;2023-10-19T03:43:49;28.65;;;11.73;;
70420;SDS011;57848;51.938;15.520;2023-10-19T03:46:16;26.35;;;11.90;;
70420;SDS011;57848;51.938;15.520;2023-10-19T03:48:54;24.83;;;11.50;;
70420;SDS011;57848;51.938;15.520;2023-10-19T03:51:25;25.48;;;11.32;;
70420;SDS011;57848;51.938;15.520;2023-10-19T03:53:51;25.95;;;11.15;;
70420;SDS011;57848;51.938;15.520;2023-10-19T03:56:24;28.60;;;11.82;;
70420;SDS011;57848;51.938;15.520;2023-10-19T03:58:49;33.93;;;12.97;;
70420;SDS011;57848;51.938;15.520;2023-10-19T04:01:16;28.42;;;12.82;;
70420;SDS011;57848;51.938;15.520;2023-10-19T04:03:44;27.67;;;12.82;;
70420;SDS011;57848;51.938;15.520;2023-10-19T04:06:10;24.57;;;11.47;;
70420;SDS011;57848;51.938;15.520;2023-10-19T04:08:41;25.63;;;11.27;;
70420;SDS011;57848;51.938;15.520;2023-10-19T04:11:15;24.95;;;12.10;;
70420;SDS011;57848;51.938;15.520;2023-10-19T04:13:47;20.33;;;10.18;;
70420;SDS011;57848;51.938;15.520;2023-10-19T04:16:13;21.15;;;10.32;;
70420;SDS011;57848;51.938;15.520;2023-10-19T04:18:39;25.50;;;10.50;;
70420;SDS011;57848;51.938;15.520;2023-10-19T04:21:09;23.38;;;11.05;;
70420;SDS011;57848;51.938;15.520;2023-10-19T04:23:34;24.58;;;10.73;;
70420;SDS011;57848;51.938;15.520;2023-10-19T04:26:00;24.80;;;11.17;;
70420;SDS011;57848;51.938;15.520;2023-10-19T04:28:30;23.05;;;11.60;;
70420;SDS011;57848;51.938;15.520;2023-10-19T04:31:02;24.63;;;11.43;;
70420;SDS011;57848;51.938;15.520;2023-10-19T04:33:29;24.93;;;11.07;;
70420;SDS011;57848;51.938;15.520;2023-10-19T04:35:55;24.63;;;11.02;;
70420;SDS011;57848;51.938;15.520;2023-10-19T04:38:22;23.08;;;10.93;;
70420;SDS011;57848;51.938;15.520;2023-10-19T04:40:47;25.33;;;11.27;;
70420;SDS011;57848;51.938;15.520;2023-10-19T04:43:13;25.90;;;11.25;;
70420;SDS011;57848;51.938;15.520;2023-10-19T04:45:41;25.60;;;12.20;;
70420;SDS011;57848;51.938;15.520;2023-10-19T04:48:06;26.02;;;12.52;;
70420;SDS011;57848;51.938;15.520;2023-10-19T04:50:32;26.63;;;12.93;;
70420;SDS011;57848;51.938;15.520;2023-10-19T04:52:57;29.60;;;13.27;;
70420;SDS011;57848;51.938;15.520;2023-10-19T04:55:22;29.03;;;13.37;;
70420;SDS011;57848;51.938;15.520;2023-10-19T04:57:48;27.23;;;12.33;;
70420;SDS011;57848;51.938;15.520;2023-10-19T05:00:14;26.67;;;12.23;;
70420;SDS011;57848;51.938;15.520;2023-10-19T05:02:40;25.35;;;11.93;;
70420;SDS011;57848;51.938;15.520;2023-10-19T05:05:06;28.27;;;13.17;;
70420;SDS011;57848;51.938;15.520;2023-10-19T05:07:32;25.13;;;13.18;;
70420;SDS011;57848;51.938;15.520;2023-10-19T05:09:58;25.17;;;12.35;;
70420;SDS011;57848;51.938;15.520;2023-10-19T05:12:24;27.47;;;13.27;;
70420;SDS011;57848;51.938;15.520;2023-10-19T05:14:49;29.45;;;12.75;;
70420;SDS011;57848;51.938;15.520;2023-10-19T05:17:15;29.27;;;12.27;;
70420;SDS011;57848;51.938;15.520;2023-10-19T05:19:40;28.90;;;12.67;;
70420;SDS011;57848;51.938;15.520;2023-10-19T05:22:06;33.60;;;15.13;;
70420;SDS011;57848;51.938;15.520;2023-10-19T05:24:34;34.00;;;13.65;;
70420;SDS011;57848;51.938;15.520;2023-10-19T05:27:00;31.67;;;14.85;;
70420;SDS011;57848;51.938;15.520;2023-10-19T05:29:25;27.93;;;13.23;;
70420;SDS011;57848;51.938;15.520;2023-10-19T05:31:51;29.13;;;13.45;;
70420;SDS011;57848;51.938;15.520;2023-10-19T05:34:23;30.42;;;13.57;;
70420;SDS011;57848;51.938;15.520;2023-10-19T05:36:51;31.23;;;12.77;;
70420;SDS011;57848;51.938;15.520;2023-10-19T05:39:19;30.95;;;14.23;;
70420;SDS011;57848;51.938;15.520;2023-10-19T05:41:45;30.30;;;13.32;;
70420;SDS011;57848;51.938;15.520;2023-10-19T05:44:10;29.10;;;14.33;;
70420;SDS011;57848;51.938;15.520;2023-10-19T05:46:36;29.40;;;12.57;;
70420;SDS011;57848;51.938;15.520;2023-10-19T05:49:03;35.85;;;14.57;;
70420;SDS011;57848;51.938;15.520;2023-10-19T05:51:29;25.17;;;12.70;;
70420;SDS011;57848;51.938;15.520;2023-10-19T05:53:55;28.25;;;13.07;;
70420;SDS011;57848;51.938;15.520;2023-10-19T05:56:26;28.75;;;13.45;;
70420;SDS011;57848;51.938;15.520;2023-10-19T05:58:52;29.23;;;13.73;;
70420;SDS011;57848;51.938;15.520;2023-10-19T06:01:19;31.75;;;13.85;;
70420;SDS011;57848;51.938;15.520;2023-10-19T06:03:45;30.58;;;13.85;;
70420;SDS011;57848;51.938;15.520;2023-10-19T06:06:10;32.47;;;14.60;;
70420;SDS011;57848;51.938;15.520;2023-10-19T06:08:35;29.27;;;14.15;;
70420;SDS011;57848;51.938;15.520;2023-10-19T06:11:01;28.37;;;14.27;;
70420;SDS011;57848;51.938;15.520;2023-10-19T06:13:26;27.87;;;14.87;;
70420;SDS011;57848;51.938;15.520;2023-10-19T06:15:51;28.27;;;14.07;;
70420;SDS011;57848;51.938;15.520;2023-10-19T06:18:17;29.00;;;14.13;;
70420;SDS011;57848;51.938;15.520;2023-10-19T06:20:45;29.15;;;13.90;;
70420;SDS011;57848;51.938;15.520;2023-10-19T06:23:12;26.88;;;13.40;;
70420;SDS011;57848;51.938;15.520;2023-10-19T06:25:37;29.63;;;13.43;;
70420;SDS011;57848;51.938;15.520;2023-10-19T06:28:03;35.63;;;14.50;;
70420;SDS011;57848;51.938;15.520;2023-10-19T06:30:29;30.93;;;14.07;;
70420;SDS011;57848;51.938;15.520;2023-10-19T06:32:56;27.98;;;12.93;;
70420;SDS011;57848;51.938;15.520;2023-10-19T06:35:25;27.33;;;13.13;;
70420;SDS011;57848;51.938;15.520;2023-10-19T06:37:52;30.92;;;13.20;;
70420;SDS011;57848;51.938;15.520;2023-10-19T06:40:20;28.60;;;13.48;;
70420;SDS011;57848;51.938;15.520;2023-10-19T06:42:47;28.67;;;13.48;;
70420;SDS011;57848;51.938;15.520;2023-10-19T06:45:14;30.83;;;14.27;;
70420;SDS011;57848;51.938;15.520;2023-10-19T06:47:48;25.63;;;12.97;;
70420;SDS011;57848;51.938;15.520;2023-10-19T06:50:15;28.00;;;13.23;;
70420;SDS011;57848;51.938;15.520;2023-10-19T06:52:42;28.52;;;13.38;;
70420;SDS011;57848;51.938;15.520;2023-10-19T06:55:09;28.52;;;13.93;;
70420;SDS011;57848;51.938;15.520;2023-10-19T06:57:41;30.25;;;14.27;;
70420;SDS011;57848;51.938;15.520;2023-10-19T07:00:13;29.00;;;13.77;;
70420;SDS011;57848;51.938;15.520;2023-10-19T07:02:47;26.65;;;13.65;;
70420;SDS011;57848;51.938;15.520;2023-10-19T07:05:14;27.58;;;14.38;;
70420;SDS011;57848;51.938;15.520;2023-10-19T07:07:43;26.05;;;13.45;;
70420;SDS011;57848;51.938;15.520;2023-10-19T07:10:10;31.40;;;13.95;;
70420;SDS011;57848;51.938;15.520;2023-10-19T07:12:43;26.83;;;12.90;;
70420;SDS011;57848;51.938;15.520;2023-10-19T07:15:11;33.28;;;13.70;;
70420;SDS011;57848;51.938;15.520;2023-10-19T07:17:42;30.30;;;13.98;;
70420;SDS011;57848;51.938;15.520;2023-10-19T07:20:08;29.95;;;13.05;;
70420;SDS011;57848;51.938;15.520;2023-10-19T07:22:46;24.25;;;11.55;;
70420;SDS011;57848;51.938;15.520;2023-10-19T07:25:12;26.20;;;12.50;;
70420;SDS011;57848;51.938;15.520;2023-10-19T07:27:38;26.23;;;12.18;;
70420;SDS011;57848;51.938;15.520;2023-10-19T07:30:04;27.57;;;12.53;;
70420;SDS011;57848;51.938;15.520;2023-10-19T07:32:34;31.33;;;13.82;;
70420;SDS011;57848;51.938;15.520;2023-10-19T07:34:59;27.17;;;13.10;;
70420;SDS011;57848;51.938;15.520;2023-10-19T07:37:25;27.17;;;12.07;;
70420;SDS011;57848;51.938;15.520;2023-10-19T07:39:50;26.23;;;12.50;;
70420;SDS011;57848;51.938;15.520;2023-10-19T07:42:17;23.48;;;12.25;;
70420;SDS011;57848;51.938;15.520;2023-10-19T07:44:42;24.77;;;11.77;;
70420;SDS011;57848;51.938;15.520;2023-10-19T07:47:08;25.13;;;11.97;;
70420;SDS011;57848;51.938;15.520;2023-10-19T07:49:37;26.42;;;12.25;;
70420;SDS011;57848;51.938;15.520;2023-10-19T07:52:06;27.73;;;12.57;;
70420;SDS011;57848;51.938;15.520;2023-10-19T07:54:33;25.15;;;12.30;;
70420;SDS011;57848;51.938;15.520;2023-10-19T07:57:00;25.52;;;13.18;;
70420;SDS011;57848;51.938;15.520;2023-10-19T07:59:28;24.10;;;11.47;;
70420;SDS011;57848;51.938;15.520;2023-10-19T08:01:54;22.63;;;12.00;;
70420;SDS011;57848;51.938;15.520;2023-10-19T08:04:19;24.10;;;12.27;;
70420;SDS011;57848;51.938;15.520;2023-10-19T08:06:44;26.67;;;12.70;;
70420;SDS011;57848;51.938;15.520;2023-10-19T08:09:10;26.97;;;12.30;;
70420;SDS011;57848;51.938;15.520;2023-10-19T08:11:36;30.77;;;13.40;;
70420;SDS011;57848;51.938;15.520;2023-10-19T08:14:02;30.70;;;13.70;;
70420;SDS011;57848;51.938;15.520;2023-10-19T08:16:27;26.60;;;13.63;;
70420;SDS011;57848;51.938;15.520;2023-10-19T08:18:52;26.93;;;13.30;;
70420;SDS011;57848;51.938;15.520;2023-10-19T08:21:18;33.63;;;14.43;;
70420;SDS011;57848;51.938;15.520;2023-10-19T08:23:43;29.30;;;14.00;;
70420;SDS011;57848;51.938;15.520;2023-10-19T08:26:10;29.88;;;13.73;;
70420;SDS011;57848;51.938;15.520;2023-10-19T08:28:35;27.40;;;12.23;;
70420;SDS011;57848;51.938;15.520;2023-10-19T08:31:01;26.08;;;12.90;;
70420;SDS011;57848;51.938;15.520;2023-10-19T08:33:28;27.23;;;13.38;;
70420;SDS011;57848;51.938;15.520;2023-10-19T08:35:55;30.60;;;13.77;;
70420;SDS011;57848;51.938;15.520;2023-10-19T08:38:21;24.93;;;12.80;;
70420;SDS011;57848;51.938;15.520;2023-10-19T08:40:48;31.05;;;14.30;;
70420;SDS011;57848;51.938;15.520;2023-10-19T08:43:14;25.83;;;12.55;;
70420;SDS011;57848;51.938;15.520;2023-10-19T08:45:43;28.40;;;14.05;;
70420;SDS011;57848;51.938;15.520;2023-10-19T08:48:08;31.90;;;14.67;;
70420;SDS011;57848;51.938;15.520;2023-10-19T08:50:34;30.40;;;14.20;;
70420;SDS011;57848;51.938;15.520;2023-10-19T08:53:00;29.52;;;14.00;;
70420;SDS011;57848;51.938;15.520;2023-10-19T08:55:28;28.67;;;13.77;;
70420;SDS011;57848;51.938;15.520;2023-10-19T08:57:55;27.53;;;14.07;;
70420;SDS011;57848;51.938;15.520;2023-10-19T09:00:23;32.15;;;14.75;;
70420;SDS011;57848;51.938;15.520;2023-10-19T09:02:51;29.05;;;14.80;;
70420;SDS011;57848;51.938;15.520;2023-10-19T09:05:17;28.42;;;14.32;;
70420;SDS011;57848;51.938;15.520;2023-10-19T09:07:53;30.60;;;14.15;;
70420;SDS011;57848;51.938;15.520;2023-10-19T09:10:25;32.83;;;15.13;;
70420;SDS011;57848;51.938;15.520;2023-10-19T09:13:10;30.95;;;14.35;;
70420;SDS011;57848;51.938;15.520;2023-10-19T09:15:37;36.83;;;14.68;;
70420;SDS011;57848;51.938;15.520;2023-10-19T09:18:14;32.75;;;15.77;;
70420;SDS011;57848;51.938;15.520;2023-10-19T09:20:42;33.97;;;15.68;;
70420;SDS011;57848;51.938;15.520;2023-10-19T09:23:17;30.63;;;15.23;;
70420;SDS011;57848;51.938;15.520;2023-10-19T09:25:47;26.42;;;13.95;;
70420;SDS011;57848;51.938;15.520;2023-10-19T09:28:17;32.47;;;15.90;;
70420;SDS011;57848;51.938;15.520;2023-10-19T09:30:43;29.15;;;14.73;;
70420;SDS011;57848;51.938;15.520;2023-10-19T09:33:09;27.83;;;15.43;;
70420;SDS011;57848;51.938;15.520;2023-10-19T09:35:35;28.40;;;14.37;;
70420;SDS011;57848;51.938;15.520;2023-10-19T09:38:03;33.83;;;17.45;;
70420;SDS011;57848;51.938;15.520;2023-10-19T09:40:31;32.10;;;16.50;;
70420;SDS011;57848;51.938;15.520;2023-10-19T09:42:57;38.27;;;17.63;;
70420;SDS011;57848;51.938;15.520;2023-10-19T09:45:23;30.97;;;14.30;;
70420;SDS011;57848;51.938;15.520;2023-10-19T09:47:53;28.63;;;15.02;;
70420;SDS011;57848;51.938;15.520;2023-10-19T09:50:19;31.05;;;14.95;;
70420;SDS011;57848;51.938;15.520;2023-10-19T09:52:45;28.73;;;14.13;;
70420;SDS011;57848;51.938;15.520;2023-10-19T09:55:28;31.45;;;14.32;;
70420;SDS011;57848;51.938;15.520;2023-10-19T09:58:06;30.58;;;15.25;;
70420;SDS011;57848;51.938;15.520;2023-10-19T10:00:42;30.25;;;16.38;;
70420;SDS011;57848;51.938;15.520;2023-10-19T10:03:31;30.83;;;14.77;;
70420;SDS011;57848;51.938;15.520;2023-10-19T10:06:07;27.42;;;13.77;;
70420;SDS011;57848;51.938;15.520;2023-10-19T10:08:35;27.00;;;13.95;;
70420;SDS011;57848;51.938;15.520;2023-10-19T10:11:23;33.13;;;15.05;;
70420;SDS011;57848;51.938;15.520;2023-10-19T10:13:54;29.33;;;14.18;;
70420;SDS011;57848;51.938;15.520;2023-10-19T10:16:22;27.87;;;16.07;;
70420;SDS011;57848;51.938;15.520;2023-10-19T10:18:49;31.48;;;15.13;;
70420;SDS011;57848;51.938;15.520;2023-10-19T10:21:17;28.17;;;14.68;;
70420;SDS011;57848;51.938;15.520;2023-10-19T10:23:48;32.88;;;15.13;;
70420;SDS011;57848;51.938;15.520;2023-10-19T10:26:20;27.80;;;16.52;;
70420;SDS011;57848;51.938;15.520;2023-10-19T10:29:07;31.07;;;14.83;;
70420;SDS011;57848;51.938;15.520;2023-10-19T10:31:40;30.88;;;16.10;;
70420;SDS011;57848;51.938;15.520;2023-10-19T10:34:08;35.85;;;15.70;;
70420;SDS011;57848;51.938;15.520;2023-10-19T10:39:27;30.48;;;15.35;;
70420;SDS011;57848;51.938;15.520;2023-10-19T10:41:58;32.33;;;16.87;;
70420;SDS011;57848;51.938;15.520;2023-10-19T10:44:41;32.75;;;17.73;;
70420;SDS011;57848;51.938;15.520;2023-10-19T10:47:08;36.58;;;15.48;;
70420;SDS011;57848;51.938;15.520;2023-10-19T10:49:35;35.90;;;16.73;;
70420;SDS011;57848;51.938;15.520;2023-10-19T10:52:22;34.08;;;17.98;;
70420;SDS011;57848;51.938;15.520;2023-10-19T10:54:49;35.53;;;17.37;;
70420;SDS011;57848;51.938;15.520;2023-10-19T10:57:14;32.40;;;18.45;;
70420;SDS011;57848;51.938;15.520;2023-10-19T10:59:39;31.90;;;17.47;;
70420;SDS011;57848;51.938;15.520;2023-10-19T11:02:16;35.17;;;18.70;;
70420;SDS011;57848;51.938;15.520;2023-10-19T11:04:43;31.88;;;17.02;;
70420;SDS011;57848;51.938;15.520;2023-10-19T11:07:17;33.07;;;17.40;;
70420;SDS011;57848;51.938;15.520;2023-10-19T11:09:44;35.35;;;18.58;;
70420;SDS011;57848;51.938;15.520;2023-10-19T11:12:11;34.72;;;19.15;;
70420;SDS011;57848;51.938;15.520;2023-10-19T11:14:37;35.47;;;17.92;;
70420;SDS011;57848;51.938;15.520;2023-10-19T11:17:12;31.90;;;18.23;;
70420;SDS011;57848;51.938;15.520;2023-10-19T11:19:40;31.33;;;17.00;;
70420;SDS011;57848;51.938;15.520;2023-10-19T11:22:09;34.53;;;19.60;;
70420;SDS011;57848;51.938;15.520;2023-10-19T11:24:35;35.67;;;19.40;;
70420;SDS011;57848;51.938;15.520;2023-10-19T11:27:05;35.00;;;18.80;;
70420;SDS011;57848;51.938;15.520;2023-10-19T11:29:32;35.08;;;18.00;;
70420;SDS011;57848;51.938;15.520;2023-10-19T11:32:01;35.10;;;18.45;;
70420;SDS011;57848;51.938;15.520;2023-10-19T11:34:27;38.33;;;18.77;;
70420;SDS011;57848;51.938;15.520;2023-10-19T11:36:56;36.72;;;19.15;;
70420;SDS011;57848;51.938;15.520;2023-10-19T11:39:31;33.23;;;18.20;;
70420;SDS011;57848;51.938;15.520;2023-10-19T11:41:56;36.35;;;18.85;;
70420;SDS011;57848;51.938;15.520;2023-10-19T11:44:22;36.58;;;20.05;;
70420;SDS011;57848;51.938;15.520;2023-10-19T11:46:47;38.30;;;19.97;;
70420;SDS011;57848;51.938;15.520;2023-10-19T11:49:13;35.85;;;18.65;;
70420;SDS011;57848;51.938;15.520;2023-10-19T11:51:38;34.93;;;19.30;;
70420;SDS011;57848;51.938;15.520;2023-10-19T11:54:04;37.87;;;19.30;;
70420;SDS011;57848;51.938;15.520;2023-10-19T11:56:31;39.30;;;20.50;;
70420;SDS011;57848;51.938;15.520;2023-10-19T11:58:57;41.90;;;22.07;;
70420;SDS011;57848;51.938;15.520;2023-10-19T12:01:22;40.80;;;21.75;;
70420;SDS011;57848;51.938;15.520;2023-10-19T12:03:47;36.80;;;19.40;;
70420;SDS011;57848;51.938;15.520;2023-10-19T12:06:13;43.40;;;21.77;;
70420;SDS011;57848;51.938;15.520;2023-10-19T12:08:44;41.25;;;21.80;;
70420;SDS011;57848;51.938;15.520;2023-10-19T12:11:09;41.10;;;21.43;;
70420;SDS011;57848;51.938;15.520;2023-10-19T12:13:42;43.35;;;22.75;;
70420;SDS011;57848;51.938;15.520;2023-10-19T12:16:13;39.95;;;20.98;;
70420;SDS011;57848;51.938;15.520;2023-10-19T12:18:45;42.25;;;21.70;;
70420;SDS011;57848;51.938;15.520;2023-10-19T12:21:13;41.75;;;21.10;;
70420;SDS011;57848;51.938;15.520;2023-10-19T12:23:39;40.00;;;21.90;;
70420;SDS011;57848;51.938;15.520;2023-10-19T12:26:05;43.17;;;21.55;;
70420;SDS011;57848;51.938;15.520;2023-10-19T12:28:36;41.17;;;21.80;;
70420;SDS011;57848;51.938;15.520;2023-10-19T12:31:05;46.22;;;22.92;;
70420;SDS011;57848;51.938;15.520;2023-10-19T12:33:33;44.10;;;22.23;;
70420;SDS011;57848;51.938;15.520;2023-10-19T12:35:59;41.42;;;20.75;;
70420;SDS011;57848;51.938;15.520;2023-10-19T12:38:25;44.63;;;22.47;;
70420;SDS011;57848;51.938;15.520;2023-10-19T12:40:50;43.05;;;21.88;;
70420;SDS011;57848;51.938;15.520;2023-10-19T12:43:16;38.43;;;20.47;;
70420;SDS011;57848;51.938;15.520;2023-10-19T12:45:51;42.63;;;21.50;;
70420;SDS011;57848;51.938;15.520;2023-10-19T12:48:20;43.75;;;23.20;;
70420;SDS011;57848;51.938;15.520;2023-10-19T12:50:46;39.93;;;21.00;;
70420;SDS011;57848;51.938;15.520;2023-10-19T12:53:12;40.47;;;21.02;;
70420;SDS011;57848;51.938;15.520;2023-10-19T12:55:39;39.92;;;20.70;;
70420;SDS011;57848;51.938;15.520;2023-10-19T12:58:04;38.50;;;20.50;;
70420;SDS011;57848;51.938;15.520;2023-10-19T13:00:34;36.70;;;19.43;;
70420;SDS011;57848;51.938;15.520;2023-10-19T13:03:06;41.25;;;20.70;;
70420;SDS011;57848;51.938;15.520;2023-10-19T13:05:32;40.55;;;21.65;;
70420;SDS011;57848;51.938;15.520;2023-10-19T13:07:59;46.25;;;21.88;;
70420;SDS011;57848;51.938;15.520;2023-10-19T13:10:28;41.33;;;21.70;;
70420;SDS011;57848;51.938;15.520;2023-10-19T13:13:05;40.03;;;21.17;;
70420;SDS011;57848;51.938;15.520;2023-10-19T13:15:32;38.03;;;20.88;;
70420;SDS011;57848;51.938;15.520;2023-10-19T13:17:59;41.47;;;21.50;;
70420;SDS011;57848;51.938;15.520;2023-10-19T13:20:26;43.42;;;22.42;;
70420;SDS011;57848;51.938;15.520;2023-10-19T13:22:52;40.17;;;21.20;;
70420;SDS011;57848;51.938;15.520;2023-10-19T13:25:17;41.72;;;20.52;;
70420;SDS011;57848;51.938;15.520;2023-10-19T13:27:46;46.93;;;23.23;;
70420;SDS011;57848;51.938;15.520;2023-10-19T13:30:11;40.58;;;21.77;;
70420;SDS011;57848;51.938;15.520;2023-10-19T13:32:37;43.70;;;23.30;;
70420;SDS011;57848;51.938;15.520;2023-10-19T13:35:05;44.97;;;23.17;;
70420;SDS011;57848;51.938;15.520;2023-10-19T13:37:32;40.05;;;21.42;;
70420;SDS011;57848;51.938;15.520;2023-10-19T13:39:57;43.33;;;22.07;;
70420;SDS011;57848;51.938;15.520;2023-10-19T13:42:24;46.20;;;22.98;;
70420;SDS011;57848;51.938;15.520;2023-10-19T13:44:49;44.88;;;22.83;;
70420;SDS011;57848;51.938;15.520;2023-10-19T13:47:14;43.30;;;22.47;;
70420;SDS011;57848;51.938;15.520;2023-10-19T13:49:40;47.15;;;22.60;;
70420;SDS011;57848;51.938;15.520;2023-10-19T13:52:06;43.47;;;23.00;;
70420;SDS011;57848;51.938;15.520;2023-10-19T13:54:33;46.35;;;22.23;;
70420;SDS011;57848;51.938;15.520;2023-10-19T13:56:59;44.95;;;23.55;;
70420;SDS011;57848;51.938;15.520;2023-10-19T13:59:27;47.97;;;22.40;;
70420;SDS011;57848;51.938;15.520;2023-10-19T14:01:53;46.10;;;22.50;;
70420;SDS011;57848;51.938;15.520;2023-10-19T14:04:18;46.03;;;22.83;;
70420;SDS011;57848;51.938;15.520;2023-10-19T14:06:44;45.90;;;22.13;;
70420;SDS011;57848;51.938;15.520;2023-10-19T14:09:12;45.17;;;23.30;;
70420;SDS011;57848;51.938;15.520;2023-10-19T14:11:38;49.42;;;22.73;;
70420;SDS011;57848;51.938;15.520;2023-10-19T14:14:03;48.63;;;24.00;;
70420;SDS011;57848;51.938;15.520;2023-10-19T14:16:29;46.60;;;24.77;;
70420;SDS011;57848;51.938;15.520;2023-10-19T14:18:55;47.87;;;24.10;;
70420;SDS011;57848;51.938;15.520;2023-10-19T14:21:21;48.28;;;25.75;;
70420;SDS011;57848;51.938;15.520;2023-10-19T14:23:48;50.92;;;25.10;;
70420;SDS011;57848;51.938;15.520;2023-10-19T14:26:13;49.97;;;24.83;;